createdAt,value
2019-04-25T00:00:56.563Z,930.2
2019-04-25T00:03:53.713Z,930.5
2019-04-25T00:06:47.550Z,930.4
2019-04-25T00:09:45.199Z,930.3
2019-04-25T00:12:39.385Z,930.3
2019-04-25T00:15:32.671Z,930.3
2019-04-25T00:18:27.921Z,930
2019-04-25T00:21:23.185Z,930.2
2019-04-25T00:24:18.325Z,930.2
2019-04-25T00:27:13.594Z,930.3
2019-04-25T00:30:08.728Z,930.1
2019-04-25T00:33:03.923Z,930.1
2019-04-25T00:35:59.116Z,930.2
2019-04-25T00:38:54.316Z,930.1
2019-04-25T00:41:50.007Z,930.3
2019-04-25T00:44:46.453Z,930.4
2019-04-25T00:47:43.761Z,930.4
2019-04-25T00:50:35.121Z,930.3
2019-04-25T00:53:30.331Z,930.2
2019-04-25T00:56:25.515Z,930.2
2019-04-25T00:59:22.792Z,930.4
2019-04-25T01:02:15.889Z,930.3
2019-04-25T01:05:12.297Z,930.2
2019-04-25T01:08:06.192Z,930.2
2019-04-25T01:11:02.433Z,930.4
2019-04-25T01:13:56.567Z,930.4
2019-04-25T01:16:55.145Z,930.2
2019-04-25T01:19:47.457Z,930.3
2019-04-25T01:22:42.003Z,930.2
2019-04-25T01:25:47.998Z,928.5
2019-04-25T01:28:35.765Z,930.1
2019-04-25T01:31:27.455Z,930.1
2019-04-25T01:34:25.996Z,930.1
2019-04-25T01:37:17.741Z,928.5
2019-04-25T01:40:14.698Z,930
2019-04-25T01:43:08.025Z,930
2019-04-25T01:46:04.116Z,930
2019-04-25T01:48:59.318Z,930.1
2019-04-25T01:51:59.630Z,929.8
2019-04-25T01:54:50.842Z,929.9
2019-04-25T02:00:38.764Z,929.8
2019-04-25T02:03:36.156Z,929.7
2019-04-25T02:06:29.024Z,929.9
2019-04-25T02:09:25.609Z,930
2019-04-25T02:12:20.972Z,930
2019-04-25T02:15:14.514Z,930
2019-04-25T02:18:09.571Z,929.9
2019-04-25T02:21:05.219Z,928.5
2019-04-25T02:24:00.830Z,930
2019-04-25T02:29:50.030Z,929.8
2019-04-25T02:32:45.172Z,930
2019-04-25T02:35:47.210Z,930
2019-04-25T02:38:35.364Z,929.5
2019-04-25T02:41:30.471Z,929.5
2019-04-25T02:44:25.582Z,929.8
2019-04-25T02:47:20.656Z,928.2
2019-04-25T02:53:10.773Z,929.7
2019-04-25T02:56:39.318Z,929.9
2019-04-25T02:59:01.060Z,929.8
2019-04-25T03:02:00.998Z,929.8
2019-04-25T03:07:46.372Z,929.9
2019-04-25T03:10:41.288Z,929.6
2019-04-25T03:13:36.393Z,929.8
2019-04-25T03:16:31.458Z,929.6
2019-04-25T03:19:27.114Z,929.5
2019-04-25T03:22:21.612Z,929.5
2019-04-25T03:25:18.390Z,929.5
2019-04-25T03:28:11.698Z,929.4
2019-04-25T03:31:27.534Z,929.3
2019-04-25T03:34:21.062Z,929.5
2019-04-25T03:39:53.752Z,929.6
2019-04-25T03:42:47.050Z,929.7
2019-04-25T03:45:45.593Z,929.7
2019-04-25T03:48:37.752Z,929.5
2019-04-25T03:51:33.875Z,929.5
2019-04-25T03:54:27.226Z,929.3
2019-04-25T03:57:23.908Z,929.4
2019-04-25T04:00:17.391Z,929.4
2019-04-25T04:03:15.487Z,929.6
2019-04-25T04:06:10.150Z,929.7
2019-04-25T04:09:08.123Z,929.6
2019-04-25T04:11:57.721Z,929.7
2019-04-25T04:14:54.428Z,929.7
2019-04-25T04:17:47.926Z,929.6
2019-04-25T04:20:44.257Z,929.2
2019-04-25T04:23:38.121Z,929.8
2019-04-25T04:26:33.872Z,929.7
2019-04-25T04:29:28.349Z,929.6
2019-04-25T04:32:24.922Z,929.9
2019-04-25T04:35:18.643Z,929.9
2019-04-25T04:38:16.803Z,929.8
2019-04-25T04:41:09.997Z,929.8
2019-04-25T04:44:04.859Z,929.8
2019-04-25T04:46:59.102Z,929.8
2019-04-25T04:49:54.809Z,929.5
2019-04-25T04:52:49.470Z,929.5
2019-04-25T04:55:44.640Z,929.4
2019-04-25T05:01:34.990Z,929.5
2019-04-25T05:04:30.175Z,929.7
2019-04-25T05:07:26.127Z,929.5
2019-04-25T05:10:20.788Z,929.7
2019-04-25T05:13:18.315Z,929
2019-04-25T05:16:16.314Z,929.9
2019-04-25T05:19:06.004Z,929.7
2019-04-25T05:22:01.238Z,929.8
2019-04-25T05:24:56.567Z,929.3
2019-04-25T05:28:05.686Z,929.9
2019-04-25T05:30:47.358Z,929.9
2019-04-25T05:33:44.294Z,929.9
2019-04-25T05:36:38.329Z,929.9
2019-04-25T05:39:34.202Z,929.9
2019-04-25T05:42:29.634Z,930
2019-04-25T05:45:26.374Z,929.9
2019-04-25T05:48:21.789Z,929.9
2019-04-25T05:51:18.032Z,929.8
2019-04-25T05:54:14.746Z,930.1
2019-04-25T05:57:09.088Z,929.9
2019-04-25T06:00:05.150Z,929.9
2019-04-25T06:03:01.219Z,930
2019-04-25T06:05:57.344Z,930.1
2019-04-25T06:08:54.903Z,930.1
2019-04-25T06:11:49.759Z,930
2019-04-25T06:14:46.004Z,930
2019-04-25T06:17:44.174Z,930.2
2019-04-25T06:20:38.555Z,930.1
2019-04-25T06:23:34.884Z,930.1
2019-04-25T06:26:40.438Z,930
2019-04-25T06:29:28.430Z,930.1
2019-04-25T06:32:27.184Z,930.2
2019-04-25T06:35:27.685Z,930.2
2019-04-25T06:38:16.691Z,930.1
2019-04-25T06:41:14.225Z,930.3
2019-04-25T06:44:09.631Z,930.2
2019-04-25T06:47:06.103Z,930.2
2019-04-25T06:50:04.515Z,930.2
2019-04-25T06:52:59.195Z,930.2
2019-04-25T06:55:55.736Z,930.1
2019-04-25T06:58:55.270Z,930.2
2019-04-25T07:04:46.407Z,930.3
2019-04-25T07:07:41.923Z,930.2
2019-04-25T07:10:38.516Z,930
2019-04-25T07:13:39.291Z,930.1
2019-04-25T07:16:35.010Z,930.2
2019-04-25T07:19:30.143Z,930.2
2019-04-25T07:22:27.126Z,930.2
2019-04-25T07:25:21.202Z,930
2019-04-25T07:28:35.899Z,930.1
2019-04-25T07:31:14.445Z,929.3
2019-04-25T07:34:11.067Z,929.9
2019-04-25T07:37:07.715Z,930.1
2019-04-25T07:40:04.813Z,930.2
2019-04-25T07:43:01.157Z,930.2
2019-04-25T07:48:54.551Z,930.3
2019-04-25T07:51:51.195Z,930.1
2019-04-25T07:54:47.851Z,930.3
2019-04-25T07:57:45.025Z,930.2
2019-04-25T08:00:41.077Z,930.2
2019-04-25T08:03:37.821Z,930.2
2019-04-25T08:06:36.086Z,930
2019-04-25T08:09:32.147Z,929.5
2019-04-25T08:12:28.974Z,930.2
2019-04-25T08:15:24.491Z,930.2
2019-04-25T08:18:25.715Z,929.5
2019-04-25T08:21:17.681Z,930.1
2019-04-25T08:27:10.771Z,930.1
2019-04-25T08:33:04.695Z,930.1
2019-04-25T08:36:09.743Z,930.2
2019-04-25T08:41:54.712Z,930.1
2019-04-25T08:44:49.999Z,930
2019-04-25T08:47:46.431Z,930.2
2019-04-25T08:50:44.891Z,930.3
2019-04-25T08:53:39.565Z,930.2
2019-04-25T08:56:37.944Z,930.3
2019-04-25T08:59:53.083Z,930.2
2019-04-25T09:02:27.904Z,930.3
2019-04-25T09:05:24.982Z,930.3
2019-04-25T09:08:20.102Z,930.1
2019-04-25T09:11:16.198Z,930.2
2019-04-25T09:14:14.110Z,930.3
2019-04-25T09:17:08.391Z,930.2
2019-04-25T09:20:04.715Z,930.3
2019-04-25T09:23:00.486Z,930.3
2019-04-25T09:25:56.460Z,930.3
2019-04-25T09:28:54.226Z,930.3
2019-04-25T09:31:48.496Z,930.3
2019-04-25T09:34:44.564Z,930.3
2019-04-25T09:37:41.509Z,930.2
2019-04-25T09:40:37.716Z,930.3
2019-04-25T09:43:35.694Z,930.4
2019-04-25T09:46:28.533Z,930.1
2019-04-25T09:49:24.437Z,930.3
2019-04-25T09:52:20.516Z,930.3
2019-04-25T09:55:16.468Z,930.3
2019-04-25T09:58:15.460Z,930.3
2019-04-25T10:04:04.315Z,930.3
2019-04-25T10:07:00.220Z,930.4
2019-04-25T10:09:56.724Z,930.4
2019-04-25T10:12:53.299Z,930.2
2019-04-25T10:15:48.632Z,930.3
2019-04-25T10:18:46.201Z,929.5
2019-04-25T10:21:40.400Z,930.2
2019-04-25T10:24:35.806Z,930.2
2019-04-25T10:27:31.762Z,930.3
2019-04-25T10:30:27.695Z,930.4
2019-04-25T10:33:24.987Z,930.2
2019-04-25T10:36:19.561Z,930.3
2019-04-25T10:39:15.698Z,930.1
2019-04-25T10:42:11.394Z,930
2019-04-25T10:45:26.293Z,930.3
2019-04-25T10:50:59.559Z,930.3
2019-04-25T10:53:55.796Z,930.2
2019-04-25T10:56:52.477Z,930.2
2019-04-25T11:00:09.975Z,930.3
2019-04-25T11:02:47.745Z,930.2
2019-04-25T11:05:42.760Z,929.8
2019-04-25T11:08:35.219Z,930.1
2019-04-25T11:11:31.253Z,930.2
2019-04-25T11:14:27.221Z,930
2019-04-25T11:17:25.062Z,930.2
2019-04-25T11:20:19.198Z,930.1
2019-04-25T11:23:15.181Z,930
2019-04-25T11:26:11.173Z,929.8
2019-04-25T11:29:07.242Z,930
2019-04-25T11:32:03.203Z,929.9
2019-04-25T11:34:59.973Z,929.7
2019-04-25T11:37:55.298Z,930
2019-04-25T11:40:55.418Z,929.7
2019-04-25T11:43:47.104Z,929.1
2019-04-25T11:46:46.909Z,929.9
2019-04-25T11:49:39.086Z,929.8
2019-04-25T11:52:35.090Z,929.7
2019-04-25T11:55:31.102Z,929.9
2019-04-25T11:58:27.149Z,929.8
2019-04-25T12:01:24.958Z,929.7
2019-04-25T12:04:19.161Z,929.7
2019-04-25T12:07:15.229Z,929.8
2019-04-25T12:10:11.293Z,929.7
2019-04-25T12:13:07.456Z,929.7
2019-04-25T12:16:04.808Z,929.8
2019-04-25T12:18:59.302Z,929.7
2019-04-25T12:21:58.750Z,929.7
2019-04-25T12:24:55.725Z,929.8
2019-04-25T12:27:53.465Z,929.7
2019-04-25T12:30:47.613Z,929.6
2019-04-25T12:33:39.476Z,929.6
2019-04-25T12:36:35.499Z,929.4
2019-04-25T12:39:31.572Z,929.5
2019-04-25T12:42:27.564Z,929.4
2019-04-25T12:45:24.868Z,929.5
2019-04-25T12:48:19.611Z,929.3
2019-04-25T12:51:15.629Z,929.3
2019-04-25T12:54:11.588Z,929.4
2019-04-25T12:57:07.548Z,929.3
2019-04-25T13:00:04.558Z,929.5
2019-04-25T13:05:56.301Z,929.3
2019-04-25T13:08:51.829Z,929.5
2019-04-25T13:11:47.306Z,929.4
2019-04-25T13:14:43.157Z,929.4
2019-04-25T13:17:39.131Z,929.3
2019-04-25T13:23:34.362Z,929.4
2019-04-25T13:26:26.837Z,929.3
2019-04-25T13:29:25.038Z,928.7
2019-04-25T13:35:14.617Z,929.4
2019-04-25T13:38:11.382Z,929.5
2019-04-25T13:41:06.419Z,929.2
2019-04-25T13:44:05.425Z,929.3
2019-04-25T13:46:58.182Z,929.1
2019-04-25T13:49:54.065Z,929.3
2019-04-25T13:52:49.958Z,929.1
2019-04-25T13:55:45.831Z,929.2
2019-04-25T13:58:41.777Z,929.2
2019-04-25T14:01:37.642Z,928.9
2019-04-25T14:04:36.353Z,929.1
2019-04-25T14:07:30.253Z,929.1
2019-04-25T14:10:27.995Z,929.1
2019-04-25T14:13:27.514Z,929
2019-04-25T14:16:17.180Z,928.9
2019-04-25T14:19:15.083Z,929
2019-04-25T14:22:09.175Z,929
2019-04-25T14:25:05.171Z,928.8
2019-04-25T14:28:01.157Z,928.8
2019-04-25T14:30:57.131Z,929
2019-04-25T14:33:53.078Z,928.9
2019-04-25T14:36:49.022Z,929
2019-04-25T14:39:44.929Z,928.7
2019-04-25T14:42:40.863Z,928.7
2019-04-25T14:45:45.597Z,928.8
2019-04-25T14:48:33.821Z,928.7
2019-04-25T14:51:28.872Z,928.8
2019-04-25T14:54:24.741Z,928.6
2019-04-25T14:57:20.719Z,928.6
2019-04-25T15:00:16.681Z,928.5
2019-04-25T15:03:12.663Z,928.6
2019-04-25T15:06:08.705Z,928.8
2019-04-25T15:09:04.744Z,928.8
2019-04-25T15:12:00.721Z,928.7
2019-04-25T15:14:56.789Z,928.8
2019-04-25T15:17:52.848Z,928.8
2019-04-25T15:20:48.896Z,928.8
2019-04-25T15:23:44.830Z,928.7
2019-04-25T15:26:41.143Z,928.8
2019-04-25T15:29:36.884Z,928.6
2019-04-25T15:32:33.322Z,928.6
2019-04-25T15:35:28.931Z,928.5
2019-04-25T15:38:25.366Z,928.6
2019-04-25T15:41:20.974Z,928.7
2019-04-25T15:44:16.981Z,928.7
2019-04-25T15:47:13.038Z,928.8
2019-04-25T15:50:08.984Z,928.6
2019-04-25T15:53:05.022Z,928.7
2019-04-25T15:56:00.981Z,928.7
2019-04-25T15:58:56.940Z,928.5
2019-04-25T16:01:52.961Z,928.7
2019-04-25T16:04:48.868Z,928.7
2019-04-25T16:07:44.828Z,928.7
2019-04-25T16:10:40.748Z,928.6
2019-04-25T16:13:37.872Z,928.8
2019-04-25T16:16:33.544Z,928.8
2019-04-25T16:19:29.859Z,928.6
2019-04-25T16:22:24.482Z,928.5
2019-04-25T16:25:20.398Z,928.7
2019-04-25T16:28:16.330Z,928.6
2019-04-25T16:31:12.297Z,928.5
2019-04-25T16:34:08.214Z,928.7
2019-04-25T16:37:04.236Z,928.7
2019-04-25T16:40:00.139Z,928.7
2019-04-25T16:42:56.055Z,928.4
2019-04-25T16:45:52.006Z,928.5
2019-04-25T16:48:47.942Z,928.4
2019-04-25T16:51:43.883Z,928.6
2019-04-25T16:54:39.796Z,928.5
2019-04-25T16:57:35.705Z,928.6
2019-04-25T17:00:32.703Z,927.6
2019-04-25T17:03:27.491Z,928.3
2019-04-25T17:06:23.417Z,928.7
2019-04-25T17:09:19.295Z,928.6
2019-04-25T17:12:15.188Z,927.4
2019-04-25T17:15:10.987Z,928.6
2019-04-25T17:18:06.961Z,928.2
2019-04-25T17:21:02.763Z,928.6
2019-04-25T17:24:07.511Z,928.7
2019-04-25T17:26:54.521Z,927.5
2019-04-25T17:29:50.385Z,928.7
2019-04-25T17:32:54.456Z,928.7
2019-04-25T17:35:42.073Z,928.6
2019-04-25T17:38:38.316Z,928.7
2019-04-25T17:41:34.961Z,928.7
2019-04-25T17:44:29.613Z,928.7
2019-04-25T17:47:25.625Z,928.8
2019-04-25T17:50:21.218Z,928.7
2019-04-25T17:53:16.988Z,928.7
2019-04-25T17:56:12.713Z,928.5
2019-04-25T17:59:08.528Z,928.7
2019-04-25T18:02:04.217Z,928.7
2019-04-25T18:04:59.931Z,928.5
2019-04-25T18:07:55.737Z,928.7
2019-04-25T18:10:51.429Z,928.5
2019-04-25T18:13:47.160Z,928.5
2019-04-25T18:16:43.035Z,928.7
2019-04-25T18:19:39.294Z,928.5
2019-04-25T18:22:36.963Z,928.6
2019-04-25T18:25:30.067Z,928.6
2019-04-25T18:28:25.670Z,928.7
2019-04-25T18:31:21.342Z,928.6
2019-04-25T18:34:17.001Z,928.6
2019-04-25T18:37:12.704Z,928.7
2019-04-25T18:40:08.391Z,928.8
2019-04-25T18:43:04.047Z,928.9
2019-04-25T18:45:59.687Z,928.7
2019-04-25T18:48:55.349Z,929
2019-04-25T18:51:58.700Z,929
2019-04-25T18:54:47.726Z,929
2019-04-25T18:57:45.745Z,929.1
2019-04-25T19:00:39.492Z,929
2019-04-25T19:03:33.681Z,929.1
2019-04-25T19:06:29.344Z,928.8
2019-04-25T19:09:25.020Z,928.9
2019-04-25T19:12:20.699Z,929.1
2019-04-25T19:15:16.372Z,929.1
2019-04-25T19:18:12.028Z,929.2
2019-04-25T19:21:07.659Z,929.2
2019-04-25T19:24:03.307Z,929.2
2019-04-25T19:26:58.930Z,929.2
2019-04-25T19:29:54.552Z,929.2
2019-04-25T19:32:50.200Z,928.1
2019-04-25T19:35:46.412Z,929.2
2019-04-25T19:38:42.621Z,929.2
2019-04-25T19:41:37.080Z,929.2
2019-04-25T19:44:32.668Z,929.2
2019-04-25T19:47:28.275Z,929.3
2019-04-25T19:50:23.838Z,929.1
2019-04-25T19:53:19.432Z,929.2
2019-04-25T19:56:15.014Z,929.3
2019-04-25T19:59:10.601Z,929.2
2019-04-25T20:02:06.159Z,929.2
2019-04-25T20:08:00.271Z,929.2
2019-04-25T20:10:53.862Z,929.3
2019-04-25T20:13:49.502Z,929.3
2019-04-25T20:16:49.823Z,929.4
2019-04-25T20:19:45.826Z,929.3
2019-04-25T20:22:35.182Z,929.3
2019-04-25T20:25:30.739Z,929.3
2019-04-25T20:28:26.315Z,929.4
2019-04-25T20:31:22.027Z,929.4
2019-04-25T20:34:17.568Z,929.2
2019-04-25T20:37:13.227Z,929.4
2019-04-25T20:40:08.834Z,929.4
2019-04-25T20:43:04.274Z,929.3
2019-04-25T20:45:59.827Z,929.3
2019-04-25T20:48:56.409Z,929
2019-04-25T20:51:51.325Z,929.2
2019-04-25T20:54:49.186Z,929.2
2019-04-25T20:57:42.089Z,929.2
2019-04-25T21:00:40.857Z,929.2
2019-04-25T21:03:33.211Z,929.2
2019-04-25T21:06:28.746Z,929.1
2019-04-25T21:09:24.301Z,929.1
2019-04-25T21:12:20.210Z,929.2
2019-04-25T21:15:15.378Z,929.1
2019-04-25T21:18:10.939Z,929.1
2019-04-25T21:21:06.501Z,929.2
2019-04-25T21:24:01.997Z,929.2
2019-04-25T21:26:57.970Z,929.1
2019-04-25T21:29:54.053Z,929.1
2019-04-25T21:32:49.210Z,929.1
2019-04-25T21:35:45.350Z,929.1
2019-04-25T21:38:39.864Z,929.1
2019-04-25T21:41:36.561Z,929.1
2019-04-25T21:44:30.989Z,929
2019-04-25T21:47:27.393Z,928.8
2019-04-25T21:50:23.050Z,929
2019-04-25T21:53:18.659Z,928.9
2019-04-25T21:56:13.195Z,928.8
2019-04-25T21:59:08.741Z,928.8
2019-04-25T22:02:06.437Z,928.9
2019-04-25T22:05:02.865Z,928.8
2019-04-25T22:07:58.276Z,928.6
2019-04-25T22:10:51.003Z,928.7
2019-04-25T22:13:47.625Z,928.8
2019-04-25T22:16:43.123Z,928.7
2019-04-25T22:19:38.772Z,928.7
2019-04-25T22:22:36.661Z,927.9
2019-04-25T22:25:29.853Z,928.6
2019-04-25T22:28:25.163Z,928.7
2019-04-25T22:31:19.961Z,928.7
2019-04-25T22:34:16.392Z,928.6
2019-04-25T22:37:12.091Z,928.5
2019-04-25T22:40:07.689Z,928.8
2019-04-25T22:43:02.115Z,928.7
2019-04-25T22:45:58.557Z,928.8
2019-04-25T22:48:53.307Z,928.9
2019-04-25T22:51:49.703Z,928.8
2019-04-25T22:54:44.894Z,928.7
2019-04-25T22:57:39.746Z,928.6
2019-04-25T23:00:36.341Z,928.7
2019-04-25T23:03:30.907Z,928.7
2019-04-25T23:09:22.947Z,928.6
2019-04-25T23:12:17.416Z,928.8
2019-04-25T23:15:16.349Z,928.8
2019-04-25T23:18:09.650Z,928.8
2019-04-25T23:21:07.056Z,928.7
2019-04-25T23:23:59.418Z,928.7
2019-04-25T23:26:54.846Z,928.8
2019-04-25T23:29:51.562Z,928.8
2019-04-25T23:32:45.926Z,928.3
2019-04-25T23:35:41.511Z,928.6
2019-04-25T23:38:38.096Z,928.6
2019-04-25T23:41:32.402Z,928.6
2019-04-25T23:44:28.823Z,928.6
2019-04-25T23:47:23.379Z,928.5
2019-04-25T23:50:18.826Z,928.4
2019-04-25T23:53:15.342Z,928.4
2019-04-25T23:56:11.813Z,928.4
2019-04-25T23:59:05.182Z,928.3
